sensor_id;sensor_type;location;lat;lon;timestamp;P1;durP1;ratioP1;P2;durP2;ratioP2
40781;SDS011;26493;51.938;7.626;2023-03-01T00:00:38;20.52;;;11.25;;
40781;SDS011;26493;51.938;7.626;2023-03-01T00:03:04;20.23;;;11.48;;
40781;SDS011;26493;51.938;7.626;2023-03-01T00:05:31;18.95;;;11.10;;
40781;SDS011;26493;51.938;7.626;2023-03-01T00:07:57;20.83;;;11.57;;
40781;SDS011;26493;51.938;7.626;2023-03-01T00:10:23;21.23;;;10.88;;
40781;SDS011;26493;51.938;7.626;2023-03-01T00:12:49;19.70;;;11.60;;
40781;SDS011;26493;51.938;7.626;2023-03-01T00:15:15;21.35;;;11.27;;
40781;SDS011;26493;51.938;7.626;2023-03-01T00:17:41;18.70;;;11.00;;
40781;SDS011;26493;51.938;7.626;2023-03-01T00:20:07;19.10;;;11.70;;
40781;SDS011;26493;51.938;7.626;2023-03-01T00:22:35;17.98;;;10.40;;
40781;SDS011;26493;51.938;7.626;2023-03-01T00:25:01;19.42;;;10.95;;
40781;SDS011;26493;51.938;7.626;2023-03-01T00:27:27;22.02;;;11.73;;
40781;SDS011;26493;51.938;7.626;2023-03-01T00:29:53;18.33;;;11.57;;
40781;SDS011;26493;51.938;7.626;2023-03-01T00:32:19;20.10;;;11.38;;
40781;SDS011;26493;51.938;7.626;2023-03-01T00:34:45;19.75;;;11.15;;
40781;SDS011;26493;51.938;7.626;2023-03-01T00:37:19;18.88;;;11.00;;
40781;SDS011;26493;51.938;7.626;2023-03-01T00:39:45;18.55;;;10.48;;
40781;SDS011;26493;51.938;7.626;2023-03-01T00:42:11;19.85;;;10.88;;
40781;SDS011;26493;51.938;7.626;2023-03-01T00:44:37;25.88;;;15.85;;
40781;SDS011;26493;51.938;7.626;2023-03-01T00:47:03;22.15;;;13.40;;
40781;SDS011;26493;51.938;7.626;2023-03-01T00:49:29;18.40;;;11.07;;
40781;SDS011;26493;51.938;7.626;2023-03-01T00:51:55;19.58;;;11.63;;
40781;SDS011;26493;51.938;7.626;2023-03-01T00:54:21;20.02;;;12.00;;
40781;SDS011;26493;51.938;7.626;2023-03-01T00:56:47;19.80;;;11.60;;
40781;SDS011;26493;51.938;7.626;2023-03-01T00:59:13;19.33;;;11.30;;
40781;SDS011;26493;51.938;7.626;2023-03-01T01:01:39;18.95;;;11.45;;
40781;SDS011;26493;51.938;7.626;2023-03-01T01:04:07;21.48;;;11.80;;
40781;SDS011;26493;51.938;7.626;2023-03-01T01:06:38;19.55;;;12.02;;
40781;SDS011;26493;51.938;7.626;2023-03-01T01:09:07;18.88;;;11.57;;
40781;SDS011;26493;51.938;7.626;2023-03-01T01:11:33;19.30;;;11.32;;
40781;SDS011;26493;51.938;7.626;2023-03-01T01:14:03;20.90;;;12.35;;
40781;SDS011;26493;51.938;7.626;2023-03-01T01:16:29;20.73;;;11.93;;
40781;SDS011;26493;51.938;7.626;2023-03-01T01:18:56;21.33;;;11.93;;
40781;SDS011;26493;51.938;7.626;2023-03-01T01:21:22;19.77;;;11.88;;
40781;SDS011;26493;51.938;7.626;2023-03-01T01:23:49;21.05;;;11.60;;
40781;SDS011;26493;51.938;7.626;2023-03-01T01:26:16;19.42;;;12.00;;
40781;SDS011;26493;51.938;7.626;2023-03-01T01:28:43;19.05;;;11.90;;
40781;SDS011;26493;51.938;7.626;2023-03-01T01:31:09;19.63;;;11.45;;
40781;SDS011;26493;51.938;7.626;2023-03-01T01:33:35;19.27;;;11.85;;
40781;SDS011;26493;51.938;7.626;2023-03-01T01:36:02;20.05;;;11.75;;
40781;SDS011;26493;51.938;7.626;2023-03-01T01:38:28;20.08;;;12.25;;
40781;SDS011;26493;51.938;7.626;2023-03-01T01:40:55;19.63;;;11.55;;
40781;SDS011;26493;51.938;7.626;2023-03-01T01:45:47;19.50;;;12.00;;
40781;SDS011;26493;51.938;7.626;2023-03-01T01:48:15;21.15;;;12.30;;
40781;SDS011;26493;51.938;7.626;2023-03-01T01:53:11;20.67;;;12.10;;
40781;SDS011;26493;51.938;7.626;2023-03-01T01:58:04;20.30;;;12.05;;
40781;SDS011;26493;51.938;7.626;2023-03-01T02:00:31;20.98;;;12.25;;
40781;SDS011;26493;51.938;7.626;2023-03-01T02:02:58;20.73;;;12.20;;
40781;SDS011;26493;51.938;7.626;2023-03-01T02:08:03;20.50;;;12.73;;
40781;SDS011;26493;51.938;7.626;2023-03-01T02:10:29;21.48;;;12.40;;
40781;SDS011;26493;51.938;7.626;2023-03-01T02:12:58;20.40;;;12.93;;
40781;SDS011;26493;51.938;7.626;2023-03-01T02:15:24;20.20;;;12.00;;
40781;SDS011;26493;51.938;7.626;2023-03-01T02:17:51;20.42;;;12.80;;
40781;SDS011;26493;51.938;7.626;2023-03-01T02:22:53;20.80;;;12.45;;
40781;SDS011;26493;51.938;7.626;2023-03-01T02:30:39;20.08;;;12.10;;
40781;SDS011;26493;51.938;7.626;2023-03-01T02:33:26;20.08;;;12.43;;
40781;SDS011;26493;51.938;7.626;2023-03-01T02:35:53;22.08;;;12.45;;
40781;SDS011;26493;51.938;7.626;2023-03-01T02:38:20;19.83;;;12.23;;
40781;SDS011;26493;51.938;7.626;2023-03-01T02:40:46;20.80;;;12.52;;
40781;SDS011;26493;51.938;7.626;2023-03-01T02:43:13;20.63;;;12.45;;
40781;SDS011;26493;51.938;7.626;2023-03-01T02:45:42;20.52;;;12.55;;
40781;SDS011;26493;51.938;7.626;2023-03-01T02:48:09;20.25;;;12.50;;
40781;SDS011;26493;51.938;7.626;2023-03-01T02:50:42;21.90;;;12.88;;
40781;SDS011;26493;51.938;7.626;2023-03-01T02:53:15;20.13;;;12.30;;
40781;SDS011;26493;51.938;7.626;2023-03-01T02:55:43;22.15;;;12.77;;
40781;SDS011;26493;51.938;7.626;2023-03-01T02:58:09;22.77;;;13.07;;
40781;SDS011;26493;51.938;7.626;2023-03-01T03:00:36;22.23;;;13.23;;
40781;SDS011;26493;51.938;7.626;2023-03-01T03:03:05;20.55;;;12.90;;
40781;SDS011;26493;51.938;7.626;2023-03-01T03:05:31;19.80;;;12.52;;
40781;SDS011;26493;51.938;7.626;2023-03-01T03:07:58;24.20;;;13.88;;
40781;SDS011;26493;51.938;7.626;2023-03-01T03:10:35;20.17;;;12.98;;
40781;SDS011;26493;51.938;7.626;2023-03-01T03:13:02;22.35;;;13.05;;
40781;SDS011;26493;51.938;7.626;2023-03-01T03:15:29;21.00;;;12.27;;
40781;SDS011;26493;51.938;7.626;2023-03-01T03:17:55;21.73;;;13.18;;
40781;SDS011;26493;51.938;7.626;2023-03-01T03:20:23;22.33;;;13.43;;
40781;SDS011;26493;51.938;7.626;2023-03-01T03:22:50;21.75;;;13.18;;
40781;SDS011;26493;51.938;7.626;2023-03-01T03:25:17;20.42;;;12.40;;
40781;SDS011;26493;51.938;7.626;2023-03-01T03:27:44;20.33;;;12.18;;
40781;SDS011;26493;51.938;7.626;2023-03-01T03:30:11;20.17;;;12.77;;
40781;SDS011;26493;51.938;7.626;2023-03-01T03:32:39;21.73;;;14.27;;
40781;SDS011;26493;51.938;7.626;2023-03-01T03:35:08;23.67;;;12.48;;
40781;SDS011;26493;51.938;7.626;2023-03-01T03:37:38;20.48;;;13.20;;
40781;SDS011;26493;51.938;7.626;2023-03-01T03:40:24;20.35;;;12.40;;
40781;SDS011;26493;51.938;7.626;2023-03-01T03:42:50;19.20;;;12.35;;
40781;SDS011;26493;51.938;7.626;2023-03-01T03:45:16;20.88;;;12.68;;
40781;SDS011;26493;51.938;7.626;2023-03-01T03:47:42;20.63;;;12.18;;
40781;SDS011;26493;51.938;7.626;2023-03-01T03:50:09;22.75;;;12.40;;
40781;SDS011;26493;51.938;7.626;2023-03-01T03:52:35;19.95;;;12.88;;
40781;SDS011;26493;51.938;7.626;2023-03-01T03:55:02;19.88;;;12.18;;
40781;SDS011;26493;51.938;7.626;2023-03-01T03:57:28;23.02;;;12.05;;
40781;SDS011;26493;51.938;7.626;2023-03-01T03:59:53;22.05;;;12.90;;
40781;SDS011;26493;51.938;7.626;2023-03-01T04:02:19;21.35;;;12.55;;
40781;SDS011;26493;51.938;7.626;2023-03-01T04:04:49;20.00;;;12.15;;
40781;SDS011;26493;51.938;7.626;2023-03-01T04:07:15;20.88;;;12.15;;
40781;SDS011;26493;51.938;7.626;2023-03-01T04:09:42;20.30;;;11.73;;
40781;SDS011;26493;51.938;7.626;2023-03-01T04:12:08;20.40;;;12.55;;
40781;SDS011;26493;51.938;7.626;2023-03-01T04:14:34;19.77;;;12.15;;
40781;SDS011;26493;51.938;7.626;2023-03-01T04:17:00;20.42;;;12.68;;
40781;SDS011;26493;51.938;7.626;2023-03-01T04:19:29;21.30;;;12.98;;
40781;SDS011;26493;51.938;7.626;2023-03-01T04:22:00;19.85;;;11.95;;
40781;SDS011;26493;51.938;7.626;2023-03-01T04:24:32;21.77;;;13.23;;
40781;SDS011;26493;51.938;7.626;2023-03-01T04:26:58;21.08;;;12.27;;
40781;SDS011;26493;51.938;7.626;2023-03-01T04:29:24;20.17;;;12.05;;
40781;SDS011;26493;51.938;7.626;2023-03-01T04:31:50;20.77;;;12.68;;
40781;SDS011;26493;51.938;7.626;2023-03-01T04:34:16;21.92;;;12.27;;
40781;SDS011;26493;51.938;7.626;2023-03-01T04:36:42;19.77;;;12.13;;
40781;SDS011;26493;51.938;7.626;2023-03-01T04:39:08;21.50;;;13.27;;
40781;SDS011;26493;51.938;7.626;2023-03-01T04:41:37;22.80;;;13.05;;
40781;SDS011;26493;51.938;7.626;2023-03-01T04:44:07;20.83;;;12.40;;
40781;SDS011;26493;51.938;7.626;2023-03-01T04:46:34;21.33;;;12.68;;
40781;SDS011;26493;51.938;7.626;2023-03-01T04:49:00;21.58;;;12.65;;
40781;SDS011;26493;51.938;7.626;2023-03-01T04:51:27;21.95;;;12.25;;
40781;SDS011;26493;51.938;7.626;2023-03-01T04:53:53;23.98;;;13.48;;
40781;SDS011;26493;51.938;7.626;2023-03-01T04:56:19;22.98;;;13.77;;
40781;SDS011;26493;51.938;7.626;2023-03-01T04:58:45;20.30;;;12.75;;
40781;SDS011;26493;51.938;7.626;2023-03-01T05:01:12;25.77;;;13.65;;
40781;SDS011;26493;51.938;7.626;2023-03-01T05:03:42;21.42;;;13.60;;
40781;SDS011;26493;51.938;7.626;2023-03-01T05:06:09;23.00;;;13.38;;
40781;SDS011;26493;51.938;7.626;2023-03-01T05:08:36;20.88;;;13.10;;
40781;SDS011;26493;51.938;7.626;2023-03-01T05:11:02;19.75;;;13.23;;
40781;SDS011;26493;51.938;7.626;2023-03-01T05:13:28;24.60;;;14.40;;
40781;SDS011;26493;51.938;7.626;2023-03-01T05:15:55;20.42;;;13.35;;
40781;SDS011;26493;51.938;7.626;2023-03-01T05:18:22;20.90;;;13.23;;
40781;SDS011;26493;51.938;7.626;2023-03-01T05:20:51;23.80;;;15.05;;
40781;SDS011;26493;51.938;7.626;2023-03-01T05:23:17;24.67;;;14.68;;
40781;SDS011;26493;51.938;7.626;2023-03-01T05:25:43;20.02;;;13.20;;
40781;SDS011;26493;51.938;7.626;2023-03-01T05:28:10;19.73;;;14.13;;
40781;SDS011;26493;51.938;7.626;2023-03-01T05:30:37;24.10;;;14.82;;
40781;SDS011;26493;51.938;7.626;2023-03-01T05:33:05;22.05;;;13.75;;
40781;SDS011;26493;51.938;7.626;2023-03-01T05:35:38;23.85;;;13.27;;
40781;SDS011;26493;51.938;7.626;2023-03-01T05:38:04;22.17;;;14.77;;
40781;SDS011;26493;51.938;7.626;2023-03-01T05:40:32;23.13;;;14.30;;
40781;SDS011;26493;51.938;7.626;2023-03-01T05:42:58;24.20;;;14.18;;
40781;SDS011;26493;51.938;7.626;2023-03-01T05:45:25;22.95;;;14.50;;
40781;SDS011;26493;51.938;7.626;2023-03-01T05:47:52;21.95;;;14.68;;
40781;SDS011;26493;51.938;7.626;2023-03-01T05:50:20;21.98;;;14.02;;
40781;SDS011;26493;51.938;7.626;2023-03-01T05:52:47;21.52;;;13.25;;
40781;SDS011;26493;51.938;7.626;2023-03-01T05:55:14;20.80;;;13.02;;
40781;SDS011;26493;51.938;7.626;2023-03-01T05:57:40;21.00;;;13.35;;
40781;SDS011;26493;51.938;7.626;2023-03-01T06:00:07;24.55;;;14.75;;
40781;SDS011;26493;51.938;7.626;2023-03-01T06:02:33;23.77;;;14.15;;
40781;SDS011;26493;51.938;7.626;2023-03-01T06:04:59;24.92;;;15.13;;
40781;SDS011;26493;51.938;7.626;2023-03-01T06:07:25;23.27;;;15.20;;
40781;SDS011;26493;51.938;7.626;2023-03-01T06:09:51;24.17;;;14.88;;
40781;SDS011;26493;51.938;7.626;2023-03-01T06:12:17;22.63;;;13.93;;
40781;SDS011;26493;51.938;7.626;2023-03-01T06:14:44;22.13;;;13.65;;
40781;SDS011;26493;51.938;7.626;2023-03-01T06:17:11;22.73;;;14.90;;
40781;SDS011;26493;51.938;7.626;2023-03-01T06:19:37;22.58;;;14.23;;
40781;SDS011;26493;51.938;7.626;2023-03-01T06:22:03;21.95;;;14.77;;
40781;SDS011;26493;51.938;7.626;2023-03-01T06:24:29;22.13;;;15.10;;
40781;SDS011;26493;51.938;7.626;2023-03-01T06:26:55;28.05;;;16.13;;
40781;SDS011;26493;51.938;7.626;2023-03-01T06:29:22;22.08;;;15.35;;
40781;SDS011;26493;51.938;7.626;2023-03-01T06:31:48;22.20;;;13.93;;
40781;SDS011;26493;51.938;7.626;2023-03-01T06:34:14;22.92;;;14.88;;
40781;SDS011;26493;51.938;7.626;2023-03-01T06:36:40;25.75;;;15.27;;
40781;SDS011;26493;51.938;7.626;2023-03-01T06:39:06;22.90;;;15.07;;
40781;SDS011;26493;51.938;7.626;2023-03-01T06:41:33;27.60;;;15.13;;
40781;SDS011;26493;51.938;7.626;2023-03-01T06:43:59;25.67;;;15.57;;
40781;SDS011;26493;51.938;7.626;2023-03-01T06:46:25;23.38;;;15.40;;
40781;SDS011;26493;51.938;7.626;2023-03-01T06:48:51;23.27;;;14.60;;
40781;SDS011;26493;51.938;7.626;2023-03-01T06:51:17;23.23;;;15.45;;
40781;SDS011;26493;51.938;7.626;2023-03-01T06:53:45;25.67;;;15.93;;
40781;SDS011;26493;51.938;7.626;2023-03-01T06:56:11;24.85;;;14.82;;
40781;SDS011;26493;51.938;7.626;2023-03-01T06:58:37;22.33;;;13.85;;
40781;SDS011;26493;51.938;7.626;2023-03-01T07:01:06;25.45;;;13.77;;
40781;SDS011;26493;51.938;7.626;2023-03-01T07:03:33;21.73;;;13.50;;
40781;SDS011;26493;51.938;7.626;2023-03-01T07:05:59;22.48;;;14.05;;
40781;SDS011;26493;51.938;7.626;2023-03-01T07:08:25;22.83;;;14.07;;
40781;SDS011;26493;51.938;7.626;2023-03-01T07:10:54;24.98;;;14.10;;
40781;SDS011;26493;51.938;7.626;2023-03-01T07:13:20;21.77;;;13.50;;
40781;SDS011;26493;51.938;7.626;2023-03-01T07:15:46;24.77;;;14.43;;
40781;SDS011;26493;51.938;7.626;2023-03-01T07:18:13;21.75;;;13.90;;
40781;SDS011;26493;51.938;7.626;2023-03-01T07:20:39;22.05;;;12.98;;
40781;SDS011;26493;51.938;7.626;2023-03-01T07:23:05;21.05;;;13.75;;
40781;SDS011;26493;51.938;7.626;2023-03-01T07:25:31;23.75;;;13.75;;
40781;SDS011;26493;51.938;7.626;2023-03-01T07:27:58;22.70;;;14.77;;
40781;SDS011;26493;51.938;7.626;2023-03-01T07:30:24;22.80;;;12.63;;
40781;SDS011;26493;51.938;7.626;2023-03-01T07:32:54;25.30;;;13.23;;
40781;SDS011;26493;51.938;7.626;2023-03-01T07:35:20;22.42;;;13.80;;
40781;SDS011;26493;51.938;7.626;2023-03-01T07:37:46;21.35;;;11.73;;
40781;SDS011;26493;51.938;7.626;2023-03-01T07:40:12;21.88;;;11.95;;
40781;SDS011;26493;51.938;7.626;2023-03-01T07:42:38;24.00;;;11.98;;
40781;SDS011;26493;51.938;7.626;2023-03-01T07:45:05;20.83;;;12.25;;
40781;SDS011;26493;51.938;7.626;2023-03-01T07:47:31;24.48;;;15.30;;
40781;SDS011;26493;51.938;7.626;2023-03-01T07:49:58;21.58;;;12.32;;
40781;SDS011;26493;51.938;7.626;2023-03-01T07:52:24;22.98;;;13.32;;
40781;SDS011;26493;51.938;7.626;2023-03-01T07:54:50;20.05;;;12.43;;
40781;SDS011;26493;51.938;7.626;2023-03-01T07:57:16;24.48;;;14.57;;
40781;SDS011;26493;51.938;7.626;2023-03-01T07:59:42;22.67;;;12.95;;
40781;SDS011;26493;51.938;7.626;2023-03-01T08:02:08;20.65;;;11.57;;
40781;SDS011;26493;51.938;7.626;2023-03-01T08:04:35;22.45;;;13.43;;
40781;SDS011;26493;51.938;7.626;2023-03-01T08:07:01;23.58;;;14.30;;
40781;SDS011;26493;51.938;7.626;2023-03-01T08:09:27;21.42;;;12.52;;
40781;SDS011;26493;51.938;7.626;2023-03-01T08:11:53;24.42;;;12.75;;
40781;SDS011;26493;51.938;7.626;2023-03-01T08:14:19;22.90;;;12.68;;
40781;SDS011;26493;51.938;7.626;2023-03-01T08:16:45;26.50;;;13.18;;
40781;SDS011;26493;51.938;7.626;2023-03-01T08:19:14;21.65;;;12.57;;
40781;SDS011;26493;51.938;7.626;2023-03-01T08:21:40;20.73;;;11.80;;
40781;SDS011;26493;51.938;7.626;2023-03-01T08:24:06;22.65;;;12.25;;
40781;SDS011;26493;51.938;7.626;2023-03-01T08:26:33;23.02;;;12.75;;
40781;SDS011;26493;51.938;7.626;2023-03-01T08:28:59;22.13;;;12.20;;
40781;SDS011;26493;51.938;7.626;2023-03-01T08:31:28;20.17;;;12.23;;
40781;SDS011;26493;51.938;7.626;2023-03-01T08:36:22;21.90;;;13.02;;
40781;SDS011;26493;51.938;7.626;2023-03-01T08:38:48;21.13;;;12.50;;
40781;SDS011;26493;51.938;7.626;2023-03-01T08:41:14;20.77;;;12.13;;
40781;SDS011;26493;51.938;7.626;2023-03-01T08:43:40;23.90;;;13.07;;
40781;SDS011;26493;51.938;7.626;2023-03-01T08:46:06;20.15;;;12.88;;
40781;SDS011;26493;51.938;7.626;2023-03-01T08:48:32;22.42;;;12.32;;
40781;SDS011;26493;51.938;7.626;2023-03-01T08:51:08;24.98;;;13.15;;
40781;SDS011;26493;51.938;7.626;2023-03-01T08:53:34;20.35;;;12.45;;
40781;SDS011;26493;51.938;7.626;2023-03-01T08:56:02;21.25;;;12.32;;
40781;SDS011;26493;51.938;7.626;2023-03-01T08:58:28;21.83;;;13.13;;
40781;SDS011;26493;51.938;7.626;2023-03-01T09:00:54;23.67;;;12.50;;
40781;SDS011;26493;51.938;7.626;2023-03-01T09:03:24;22.65;;;12.30;;
40781;SDS011;26493;51.938;7.626;2023-03-01T09:05:50;20.23;;;12.07;;
40781;SDS011;26493;51.938;7.626;2023-03-01T09:08:20;23.27;;;12.55;;
40781;SDS011;26493;51.938;7.626;2023-03-01T09:10:46;22.70;;;12.45;;
40781;SDS011;26493;51.938;7.626;2023-03-01T09:13:12;23.20;;;12.75;;
40781;SDS011;26493;51.938;7.626;2023-03-01T09:15:38;20.35;;;12.15;;
40781;SDS011;26493;51.938;7.626;2023-03-01T09:18:04;20.30;;;12.48;;
40781;SDS011;26493;51.938;7.626;2023-03-01T09:20:31;23.38;;;13.50;;
40781;SDS011;26493;51.938;7.626;2023-03-01T09:22:57;20.83;;;13.07;;
40781;SDS011;26493;51.938;7.626;2023-03-01T09:25:23;22.08;;;13.18;;
40781;SDS011;26493;51.938;7.626;2023-03-01T09:27:53;21.02;;;13.18;;
40781;SDS011;26493;51.938;7.626;2023-03-01T09:30:20;21.70;;;13.13;;
40781;SDS011;26493;51.938;7.626;2023-03-01T09:32:46;22.40;;;12.77;;
40781;SDS011;26493;51.938;7.626;2023-03-01T09:35:12;20.65;;;12.88;;
40781;SDS011;26493;51.938;7.626;2023-03-01T09:37:39;19.52;;;12.57;;
40781;SDS011;26493;51.938;7.626;2023-03-01T09:40:14;23.00;;;14.60;;
40781;SDS011;26493;51.938;7.626;2023-03-01T09:42:45;19.85;;;12.05;;
40781;SDS011;26493;51.938;7.626;2023-03-01T09:45:15;20.15;;;12.40;;
40781;SDS011;26493;51.938;7.626;2023-03-01T09:47:45;22.95;;;12.40;;
40781;SDS011;26493;51.938;7.626;2023-03-01T09:55:07;21.48;;;12.57;;
40781;SDS011;26493;51.938;7.626;2023-03-01T09:57:53;21.17;;;13.32;;
40781;SDS011;26493;51.938;7.626;2023-03-01T10:02:51;23.45;;;13.65;;
40781;SDS011;26493;51.938;7.626;2023-03-01T10:10:33;23.10;;;12.55;;
40781;SDS011;26493;51.938;7.626;2023-03-01T10:13:10;23.02;;;13.25;;
40781;SDS011;26493;51.938;7.626;2023-03-01T10:15:40;21.30;;;13.38;;
40781;SDS011;26493;51.938;7.626;2023-03-01T10:18:10;21.73;;;12.80;;
40781;SDS011;26493;51.938;7.626;2023-03-01T10:23:16;20.25;;;13.15;;
40781;SDS011;26493;51.938;7.626;2023-03-01T10:25:44;21.88;;;13.30;;
40781;SDS011;26493;51.938;7.626;2023-03-01T10:30:42;19.80;;;12.70;;
40781;SDS011;26493;51.938;7.626;2023-03-01T10:35:40;22.27;;;15.70;;
40781;SDS011;26493;51.938;7.626;2023-03-01T10:38:07;21.08;;;13.32;;
40781;SDS011;26493;51.938;7.626;2023-03-01T10:40:34;22.70;;;13.65;;
40781;SDS011;26493;51.938;7.626;2023-03-01T10:43:01;20.90;;;14.02;;
40781;SDS011;26493;51.938;7.626;2023-03-01T10:48:04;21.65;;;13.27;;
40781;SDS011;26493;51.938;7.626;2023-03-01T10:50:31;22.50;;;13.38;;
40781;SDS011;26493;51.938;7.626;2023-03-01T10:53:01;20.67;;;12.88;;
40781;SDS011;26493;51.938;7.626;2023-03-01T10:58:05;21.08;;;13.07;;
40781;SDS011;26493;51.938;7.626;2023-03-01T11:00:32;21.48;;;13.07;;
40781;SDS011;26493;51.938;7.626;2023-03-01T11:05:25;20.23;;;13.05;;
40781;SDS011;26493;51.938;7.626;2023-03-01T11:07:57;23.88;;;14.00;;
40781;SDS011;26493;51.938;7.626;2023-03-01T11:10:25;22.83;;;15.30;;
40781;SDS011;26493;51.938;7.626;2023-03-01T11:12:52;23.45;;;13.25;;
40781;SDS011;26493;51.938;7.626;2023-03-01T11:15:20;22.20;;;13.18;;
40781;SDS011;26493;51.938;7.626;2023-03-01T11:17:46;21.00;;;13.90;;
40781;SDS011;26493;51.938;7.626;2023-03-01T11:22:49;21.92;;;15.55;;
40781;SDS011;26493;51.938;7.626;2023-03-01T11:25:17;23.02;;;14.98;;
40781;SDS011;26493;51.938;7.626;2023-03-01T11:27:45;19.48;;;13.77;;
40781;SDS011;26493;51.938;7.626;2023-03-01T11:32:48;21.67;;;14.48;;
40781;SDS011;26493;51.938;7.626;2023-03-01T11:35:18;24.67;;;15.55;;
40781;SDS011;26493;51.938;7.626;2023-03-01T11:40:16;24.20;;;14.45;;
40781;SDS011;26493;51.938;7.626;2023-03-01T11:45:21;22.98;;;15.38;;
40781;SDS011;26493;51.938;7.626;2023-03-01T11:53:07;21.75;;;15.77;;
40781;SDS011;26493;51.938;7.626;2023-03-01T12:08:41;21.90;;;15.60;;
40781;SDS011;26493;51.938;7.626;2023-03-01T12:24:06;20.23;;;15.05;;
40781;SDS011;26493;51.938;7.626;2023-03-01T12:26:40;21.45;;;16.00;;
40781;SDS011;26493;51.938;7.626;2023-03-01T12:29:24;21.70;;;15.05;;
40781;SDS011;26493;51.938;7.626;2023-03-01T12:34:38;21.60;;;16.23;;
40781;SDS011;26493;51.938;7.626;2023-03-01T12:42:26;20.48;;;16.13;;
40781;SDS011;26493;51.938;7.626;2023-03-01T12:44:57;21.67;;;15.73;;
40781;SDS011;26493;51.938;7.626;2023-03-01T12:49:57;20.77;;;14.90;;
40781;SDS011;26493;51.938;7.626;2023-03-01T12:54:57;21.75;;;15.55;;
40781;SDS011;26493;51.938;7.626;2023-03-01T12:57:29;21.10;;;15.80;;
40781;SDS011;26493;51.938;7.626;2023-03-01T13:07:45;20.38;;;15.50;;
40781;SDS011;26493;51.938;7.626;2023-03-01T13:20:15;18.30;;;14.07;;
40781;SDS011;26493;51.938;7.626;2023-03-01T13:22:43;21.85;;;14.23;;
40781;SDS011;26493;51.938;7.626;2023-03-01T13:25:12;18.38;;;13.52;;
40781;SDS011;26493;51.938;7.626;2023-03-01T13:27:38;23.15;;;14.32;;
40781;SDS011;26493;51.938;7.626;2023-03-01T13:30:12;18.42;;;13.88;;
40781;SDS011;26493;51.938;7.626;2023-03-01T13:32:51;23.02;;;15.13;;
40781;SDS011;26493;51.938;7.626;2023-03-01T13:37:43;21.55;;;13.48;;
40781;SDS011;26493;51.938;7.626;2023-03-01T13:42:47;26.40;;;14.60;;
40781;SDS011;26493;51.938;7.626;2023-03-01T13:47:45;19.15;;;14.25;;
40781;SDS011;26493;51.938;7.626;2023-03-01T13:50:21;21.75;;;14.18;;
40781;SDS011;26493;51.938;7.626;2023-03-01T13:55:20;19.27;;;13.98;;
40781;SDS011;26493;51.938;7.626;2023-03-01T13:57:51;19.92;;;14.95;;
40781;SDS011;26493;51.938;7.626;2023-03-01T14:03:01;20.13;;;14.52;;
40781;SDS011;26493;51.938;7.626;2023-03-01T14:05:29;19.35;;;14.88;;
40781;SDS011;26493;51.938;7.626;2023-03-01T14:07:55;18.95;;;14.25;;
40781;SDS011;26493;51.938;7.626;2023-03-01T14:10:21;19.35;;;14.35;;
40781;SDS011;26493;51.938;7.626;2023-03-01T14:15:42;20.67;;;14.15;;
40781;SDS011;26493;51.938;7.626;2023-03-01T14:20:41;19.35;;;14.00;;
40781;SDS011;26493;51.938;7.626;2023-03-01T14:23:12;18.13;;;13.55;;
40781;SDS011;26493;51.938;7.626;2023-03-01T14:25:45;19.65;;;13.80;;
40781;SDS011;26493;51.938;7.626;2023-03-01T14:30:41;18.70;;;13.98;;
40781;SDS011;26493;51.938;7.626;2023-03-01T14:33:17;18.90;;;13.27;;
40781;SDS011;26493;51.938;7.626;2023-03-01T14:35:51;19.33;;;14.98;;
40781;SDS011;26493;51.938;7.626;2023-03-01T14:38:21;20.17;;;15.20;;
40781;SDS011;26493;51.938;7.626;2023-03-01T14:40:48;19.42;;;14.90;;
40781;SDS011;26493;51.938;7.626;2023-03-01T14:43:17;19.73;;;15.00;;
40781;SDS011;26493;51.938;7.626;2023-03-01T14:45:46;19.58;;;14.27;;
40781;SDS011;26493;51.938;7.626;2023-03-01T14:48:13;21.00;;;14.73;;
40781;SDS011;26493;51.938;7.626;2023-03-01T14:50:41;21.73;;;14.70;;
40781;SDS011;26493;51.938;7.626;2023-03-01T14:53:11;18.35;;;13.45;;
40781;SDS011;26493;51.938;7.626;2023-03-01T14:55:41;19.95;;;14.27;;
40781;SDS011;26493;51.938;7.626;2023-03-01T14:58:15;17.25;;;12.77;;
40781;SDS011;26493;51.938;7.626;2023-03-01T15:00:47;19.85;;;13.98;;
40781;SDS011;26493;51.938;7.626;2023-03-01T15:03:23;18.90;;;13.65;;
40781;SDS011;26493;51.938;7.626;2023-03-01T15:05:50;18.75;;;14.43;;
40781;SDS011;26493;51.938;7.626;2023-03-01T15:08:25;21.50;;;14.63;;
40781;SDS011;26493;51.938;7.626;2023-03-01T15:13:24;19.48;;;14.27;;
40781;SDS011;26493;51.938;7.626;2023-03-01T15:15:51;21.60;;;13.90;;
40781;SDS011;26493;51.938;7.626;2023-03-01T15:18:20;18.15;;;12.93;;
40781;SDS011;26493;51.938;7.626;2023-03-01T15:20:47;19.08;;;12.95;;
40781;SDS011;26493;51.938;7.626;2023-03-01T15:23:17;18.98;;;13.10;;
40781;SDS011;26493;51.938;7.626;2023-03-01T15:25:44;22.30;;;13.68;;
40781;SDS011;26493;51.938;7.626;2023-03-01T15:28:12;19.60;;;13.50;;
40781;SDS011;26493;51.938;7.626;2023-03-01T15:30:45;19.20;;;13.45;;
40781;SDS011;26493;51.938;7.626;2023-03-01T15:35:49;18.60;;;13.45;;
40781;SDS011;26493;51.938;7.626;2023-03-01T15:40:52;18.73;;;12.77;;
40781;SDS011;26493;51.938;7.626;2023-03-01T15:43:37;21.40;;;13.80;;
40781;SDS011;26493;51.938;7.626;2023-03-01T15:46:04;19.17;;;14.20;;
40781;SDS011;26493;51.938;7.626;2023-03-01T15:48:30;18.25;;;13.00;;
40781;SDS011;26493;51.938;7.626;2023-03-01T15:50:57;19.40;;;12.98;;
40781;SDS011;26493;51.938;7.626;2023-03-01T15:53:23;19.20;;;12.50;;
40781;SDS011;26493;51.938;7.626;2023-03-01T15:55:49;18.95;;;13.27;;
40781;SDS011;26493;51.938;7.626;2023-03-01T15:58:19;20.92;;;13.73;;
40781;SDS011;26493;51.938;7.626;2023-03-01T16:00:46;17.05;;;12.43;;
40781;SDS011;26493;51.938;7.626;2023-03-01T16:03:13;17.60;;;12.43;;
40781;SDS011;26493;51.938;7.626;2023-03-01T16:05:46;19.60;;;13.07;;
40781;SDS011;26493;51.938;7.626;2023-03-01T16:08:12;19.20;;;12.52;;
40781;SDS011;26493;51.938;7.626;2023-03-01T16:10:39;18.42;;;13.35;;
40781;SDS011;26493;51.938;7.626;2023-03-01T16:13:05;19.83;;;12.50;;
40781;SDS011;26493;51.938;7.626;2023-03-01T16:15:32;18.98;;;13.05;;
40781;SDS011;26493;51.938;7.626;2023-03-01T16:18:00;19.13;;;12.23;;
40781;SDS011;26493;51.938;7.626;2023-03-01T16:20:26;20.63;;;12.90;;
40781;SDS011;26493;51.938;7.626;2023-03-01T16:22:52;19.25;;;13.13;;
40781;SDS011;26493;51.938;7.626;2023-03-01T16:25:20;17.65;;;12.32;;
40781;SDS011;26493;51.938;7.626;2023-03-01T16:27:47;17.95;;;12.93;;
40781;SDS011;26493;51.938;7.626;2023-03-01T16:30:13;20.10;;;12.20;;
40781;SDS011;26493;51.938;7.626;2023-03-01T16:32:40;18.80;;;13.48;;
40781;SDS011;26493;51.938;7.626;2023-03-01T16:35:07;19.23;;;12.23;;
40781;SDS011;26493;51.938;7.626;2023-03-01T16:37:34;18.75;;;13.10;;
40781;SDS011;26493;51.938;7.626;2023-03-01T16:40:00;23.02;;;11.90;;
40781;SDS011;26493;51.938;7.626;2023-03-01T16:42:26;19.55;;;13.02;;
40781;SDS011;26493;51.938;7.626;2023-03-01T16:44:55;18.17;;;12.00;;
40781;SDS011;26493;51.938;7.626;2023-03-01T16:47:22;17.85;;;12.00;;
40781;SDS011;26493;51.938;7.626;2023-03-01T16:49:51;17.23;;;11.38;;
40781;SDS011;26493;51.938;7.626;2023-03-01T16:52:17;19.17;;;11.43;;